Time,TemperatureF,DewpointF,PressureIn,WindDirection,WindDirectionDegrees,WindSpeedMPH,WindSpeedGustMPH,Humidity,HourlyPrecipIn,Conditions,Clouds,dailyrainin,SoftwareType,DateUTC
2013-08-23 00:02:00,66.9,66.9,0.00,WNW,291,0.0,0.0,100,0.00,,,-99.99,VWS V12.07,2013-08-23 04:02:00,
2013-08-23 00:05:00,66.9,66.9,0.00,WNW,297,0.0,2.4,100,0.00,,,-99.99,VWS V12.07,2013-08-23 04:05:00,
2013-08-23 00:12:00,66.9,66.9,0.00,WSW,255,0.0,4.5,100,0.00,,,-99.99,VWS V12.07,2013-08-23 04:12:00,
2013-08-23 00:22:00,66.9,66.9,0.00,SSE,166,0.0,0.0,100,0.00,,,-99.99,VWS V12.07,2013-08-23 04:22:00,
2013-08-23 00:32:00,66.7,66.7,0.00,SSE,166,0.0,0.0,100,0.00,,,-99.99,VWS V12.07,2013-08-23 04:32:00,
2013-08-23 00:42:00,66.5,66.5,0.00,SSE,166,0.0,0.0,100,0.00,,,-99.99,VWS V12.07,2013-08-23 04:42:00,
2013-08-23 00:52:00,66.4,66.4,0.00,SSE,166,0.0,0.0,100,0.00,,,-99.99,VWS V12.07,2013-08-23 04:52:00,
2013-08-23 01:02:00,66.2,66.2,0.00,SSE,166,0.0,0.0,100,0.00,,,-99.99,VWS V12.07,2013-08-23 05:02:00,
2013-08-23 01:12:00,65.9,65.9,0.00,SSE,166,0.0,0.0,100,0.00,,,-99.99,VWS V12.07,2013-08-23 05:12:00,
2013-08-23 01:22:00,65.8,65.8,0.00,SSE,166,0.0,0.0,100,0.00,,,-99.99,VWS V12.07,2013-08-23 05:22:00,
2013-08-23 01:32:00,65.6,65.6,0.00,SSE,166,0.0,0.0,100,0.00,,,-99.99,VWS V12.07,2013-08-23 05:32:00,
2013-08-23 01:42:00,65.4,65.4,0.00,SSE,166,0.0,0.0,100,0.00,,,-99.99,VWS V12.07,2013-08-23 05:42:00,
2013-08-23 01:52:00,65.4,65.4,0.00,SSE,166,0.0,0.0,100,0.00,,,-99.99,VWS V12.07,2013-08-23 05:52:00,
2013-08-23 02:02:00,65.3,65.3,0.00,SSE,166,0.0,0.0,100,0.00,,,-99.99,VWS V12.07,2013-08-23 06:02:00,
2013-08-23 02:12:00,65.1,65.1,0.00,SSE,166,0.0,0.0,100,0.00,,,-99.99,VWS V12.07,2013-08-23 06:12:00,
2013-08-23 02:22:00,65.0,65.0,0.00,SSE,166,0.0,0.0,100,0.00,,,-99.99,VWS V12.07,2013-08-23 06:22:00,
2013-08-23 02:32:00,65.0,65.0,0.00,SSE,166,0.0,2.6,100,0.00,,,-99.99,VWS V12.07,2013-08-23 06:32:00,
2013-08-23 02:42:00,64.9,64.9,0.00,SSE,166,0.0,0.0,100,0.00,,,-99.99,VWS V12.07,2013-08-23 06:42:00,
2013-08-23 02:52:00,64.9,64.9,0.00,SSE,166,0.0,0.0,100,0.00,,,-99.99,VWS V12.07,2013-08-23 06:52:00,
2013-08-23 03:02:00,64.8,64.8,0.00,SSE,166,0.0,0.0,100,0.00,,,-99.99,VWS V12.07,2013-08-23 07:02:00,
2013-08-23 03:12:00,64.8,64.8,0.00,SSE,166,0.0,0.0,100,0.00,,,-99.99,VWS V12.07,2013-08-23 07:12:00,
2013-08-23 03:22:00,64.6,64.6,0.00,SSE,166,0.0,0.0,100,0.00,,,-99.99,VWS V12.07,2013-08-23 07:22:00,
2013-08-23 03:32:00,64.4,64.4,0.00,SSE,166,0.0,0.0,100,0.00,,,-99.99,VWS V12.07,2013-08-23 07:32:00,
2013-08-23 03:42:00,64.3,64.3,0.00,SSE,166,0.0,0.0,100,0.00,,,-99.99,VWS V12.07,2013-08-23 07:42:00,
2013-08-23 03:52:00,64.3,64.3,0.00,SSE,166,0.0,0.0,100,0.00,,,-99.99,VWS V12.07,2013-08-23 07:52:00,
2013-08-23 04:02:00,64.2,64.2,0.00,SSE,166,0.0,0.0,100,0.00,,,-99.99,VWS V12.07,2013-08-23 08:02:00,
2013-08-23 04:12:00,64.1,64.1,0.00,SSE,166,0.0,0.0,100,0.00,,,-99.99,VWS V12.07,2013-08-23 08:12:00,
2013-08-23 04:22:00,64.1,64.1,0.00,SSE,166,0.0,0.0,100,0.00,,,-99.99,VWS V12.07,2013-08-23 08:22:00,
2013-08-23 04:32:00,64.2,64.2,0.00,SSE,166,0.0,0.0,100,0.00,,,-99.99,VWS V12.07,2013-08-23 08:32:00,
2013-08-23 04:42:00,64.2,64.2,0.00,SSE,166,0.0,0.0,100,0.00,,,-99.99,VWS V12.07,2013-08-23 08:42:00,
2013-08-23 04:52:00,64.0,64.0,0.00,SSE,166,0.0,0.0,100,0.00,,,-99.99,VWS V12.07,2013-08-23 08:52:00,
2013-08-23 05:02:00,64.1,64.1,0.00,SSE,166,0.0,0.0,100,0.00,,,-99.99,VWS V12.07,2013-08-23 09:02:00,
2013-08-23 05:12:00,64.0,64.0,0.00,SSE,166,0.0,0.0,100,0.00,,,-99.99,VWS V12.07,2013-08-23 09:12:00,
2013-08-23 05:22:00,63.9,63.9,0.00,West,281,0.0,5.2,100,0.00,,,-99.99,VWS V12.07,2013-08-23 09:22:00,
2013-08-23 05:32:00,64.2,64.2,0.00,WNW,292,2.9,7.6,100,0.00,,,-99.99,VWS V12.07,2013-08-23 09:32:00,
2013-08-23 05:42:00,64.3,64.3,0.00,WSW,255,5.0,8.8,100,0.00,,,-99.99,VWS V12.07,2013-08-23 09:42:00,
2013-08-23 05:52:00,64.3,64.3,0.00,NNW,335,0.0,8.8,100,0.00,,,-99.99,VWS V12.07,2013-08-23 09:52:00,
2013-08-23 06:02:00,64.2,64.2,0.00,West,280,0.0,7.5,100,0.00,,,-99.99,VWS V12.07,2013-08-23 10:02:00,
2013-08-23 06:12:00,64.3,64.3,0.00,West,269,4.9,8.3,100,0.00,,,-99.99,VWS V12.07,2013-08-23 10:12:00,
2013-08-23 06:22:00,64.4,64.4,0.00,WNW,283,0.0,6.2,100,0.00,,,-99.99,VWS V12.07,2013-08-23 10:22:00,
2013-08-23 06:32:00,64.5,64.5,0.00,West,262,0.0,9.3,100,0.00,,,-99.99,VWS V12.07,2013-08-23 10:32:00,
2013-08-23 06:42:00,64.6,64.6,0.00,WNW,291,5.2,7.0,100,0.00,,,-99.99,VWS V12.07,2013-08-23 10:42:00,
2013-08-23 06:52:00,64.8,64.8,0.00,NW,315,7.5,9.7,100,0.00,,,-99.99,VWS V12.07,2013-08-23 10:52:00,
2013-08-23 07:02:00,64.8,64.8,0.00,West,263,0.0,3.0,100,0.00,,,-99.99,VWS V12.07,2013-08-23 11:02:00,
2013-08-23 07:12:00,64.9,64.9,0.00,West,269,1.1,5.2,100,0.00,,,-99.99,VWS V12.07,2013-08-23 11:12:00,
2013-08-23 07:22:00,64.9,64.9,0.00,NNW,339,0.0,6.1,100,0.00,,,-99.99,VWS V12.07,2013-08-23 11:22:00,
2013-08-23 07:32:00,65.0,65.0,0.00,North,8,0.0,9.1,100,0.00,,,-99.99,VWS V12.07,2013-08-23 11:32:00,
2013-08-23 07:42:00,65.2,65.2,0.00,West,276,0.0,7.5,100,0.00,,,-99.99,VWS V12.07,2013-08-23 11:42:00,
2013-08-23 07:52:00,65.4,65.4,0.00,SSW,211,3.2,10.5,100,0.00,,,-99.99,VWS V12.07,2013-08-23 11:52:00,
2013-08-23 08:02:00,65.6,65.6,0.00,South,170,2.8,12.9,100,0.00,,,-99.99,VWS V12.07,2013-08-23 12:02:00,
2013-08-23 08:12:00,65.7,65.7,0.00,SW,215,3.1,12.9,100,0.00,,,-99.99,VWS V12.07,2013-08-23 12:12:00,
2013-08-23 08:22:00,65.8,65.8,0.00,WSW,238,0.0,4.7,100,0.00,,,-99.99,VWS V12.07,2013-08-23 12:22:00,
2013-08-23 08:32:00,65.8,65.8,0.00,NW,304,2.9,7.2,100,0.00,,,-99.99,VWS V12.07,2013-08-23 12:32:00,
2013-08-23 08:42:00,65.9,65.9,0.00,SW,222,6.2,6.6,100,0.00,,,-99.99,VWS V12.07,2013-08-23 12:42:00,
2013-08-23 08:52:00,66.0,66.0,0.00,WNW,285,3.2,7.8,100,0.00,,,-99.99,VWS V12.07,2013-08-23 12:52:00,
2013-08-23 09:02:00,66.1,66.1,0.00,South,176,3.4,6.0,100,0.00,,,-99.99,VWS V12.07,2013-08-23 13:02:00,
2013-08-23 09:12:00,66.7,66.7,0.00,WNW,288,6.4,8.8,100,0.00,,,-99.99,VWS V12.07,2013-08-23 13:12:00,
2013-08-23 09:22:00,67.2,67.2,0.00,WSW,252,0.0,4.4,100,0.00,,,-99.99,VWS V12.07,2013-08-23 13:22:00,
2013-08-23 09:32:00,67.2,67.2,0.00,WSW,240,0.0,4.4,100,0.00,,,-99.99,VWS V12.07,2013-08-23 13:32:00,
2013-08-23 09:42:00,67.4,67.4,0.00,WSW,240,0.0,0.0,100,0.00,,,-99.99,VWS V12.07,2013-08-23 13:42:00,
2013-08-23 09:52:00,67.8,67.8,0.00,WNW,300,0.0,6.3,100,0.00,,,-99.99,VWS V12.07,2013-08-23 13:52:00,
2013-08-23 10:02:00,68.2,68.2,0.00,WNW,300,0.0,0.0,100,0.00,,,-99.99,VWS V12.07,2013-08-23 14:02:00,
2013-08-23 10:12:00,68.5,68.5,0.00,WNW,300,0.0,0.0,100,0.00,,,-99.99,VWS V12.07,2013-08-23 14:12:00,
2013-08-23 10:22:00,68.5,68.5,0.00,WSW,257,0.0,5.5,100,0.00,,,-99.99,VWS V12.07,2013-08-23 14:22:00,
2013-08-23 10:32:00,68.7,68.7,0.00,SSW,207,0.0,6.0,100,0.00,,,-99.99,VWS V12.07,2013-08-23 14:32:00,
2013-08-23 10:42:00,68.9,68.9,0.00,West,269,0.0,0.0,100,0.00,,,-99.99,VWS V12.07,2013-08-23 14:42:00,
2013-08-23 10:52:00,68.8,68.8,0.00,North,11,0.0,7.7,100,0.00,,,-99.99,VWS V12.07,2013-08-23 14:52:00,
2013-08-23 11:02:00,68.8,68.8,0.00,North,359,0.0,1.9,100,0.00,,,-99.99,VWS V12.07,2013-08-23 15:02:00,
2013-08-23 11:12:00,69.4,69.4,0.00,NW,307,0.0,8.3,100,0.00,,,-99.99,VWS V12.07,2013-08-23 15:12:00,
2013-08-23 11:22:00,70.0,70.0,0.00,WNW,290,0.0,3.2,100,0.00,,,-99.99,VWS V12.07,2013-08-23 15:22:00,
2013-08-23 11:32:00,70.0,69.9,0.00,WNW,290,0.0,3.2,100,0.00,,,-99.99,VWS V12.07,2013-08-23 15:32:00,
2013-08-23 11:42:00,70.5,70.3,0.00,SW,236,0.0,0.0,99,0.00,,,-99.99,VWS V12.07,2013-08-23 15:42:00,
2013-08-23 11:52:00,70.3,69.8,0.00,West,271,0.0,8.4,98,0.00,,,-99.99,VWS V12.07,2013-08-23 15:52:00,
2013-08-23 12:02:00,70.7,69.8,0.00,NE,42,1.8,5.6,97,0.00,,,-99.99,VWS V12.07,2013-08-23 16:02:00,
2013-08-23 12:12:00,70.8,69.6,0.00,NE,42,0.0,5.6,96,0.00,,,-99.99,VWS V12.07,2013-08-23 16:12:00,
2013-08-23 12:22:00,71.1,69.8,0.00,ESE,103,0.0,0.0,96,0.00,,,-99.99,VWS V12.07,2013-08-23 16:22:00,
2013-08-23 12:32:00,71.0,69.8,0.00,ESE,103,0.0,0.0,96,0.00,,,-99.99,VWS V12.07,2013-08-23 16:32:00,
2013-08-23 12:42:00,71.4,70.1,0.00,East,94,0.0,3.0,96,0.00,,,-99.99,VWS V12.07,2013-08-23 16:42:00,
2013-08-23 12:52:00,71.5,70.0,0.00,NE,34,0.0,4.3,95,0.00,,,-99.99,VWS V12.07,2013-08-23 16:52:00,
2013-08-23 13:02:00,71.4,69.6,0.00,SE,132,0.0,0.0,94,0.00,,,-99.99,VWS V12.07,2013-08-23 17:02:00,
2013-08-23 13:12:00,71.8,69.8,0.00,NW,314,0.0,4.3,93,0.00,,,-99.99,VWS V12.07,2013-08-23 17:12:00,
2013-08-23 13:22:00,72.3,69.8,0.00,West,259,0.0,0.0,92,0.00,,,-99.99,VWS V12.07,2013-08-23 17:22:00,
2013-08-23 13:32:00,72.0,69.6,0.00,West,271,0.0,4.2,92,0.00,,,-99.99,VWS V12.07,2013-08-23 17:32:00,
2013-08-23 13:42:00,71.9,69.8,0.00,West,271,0.0,0.0,93,0.00,,,-99.99,VWS V12.07,2013-08-23 17:42:00,
2013-08-23 13:52:00,72.2,69.3,0.00,NE,44,0.0,3.2,91,0.00,,,-99.99,VWS V12.07,2013-08-23 17:52:00,
2013-08-23 14:02:00,73.0,70.4,0.00,NE,44,0.0,3.0,92,0.00,,,-99.99,VWS V12.07,2013-08-23 18:02:00,
2013-08-23 14:12:00,73.5,70.5,0.00,NW,305,0.0,8.1,90,0.00,,,-99.99,VWS V12.07,2013-08-23 18:12:00,
2013-08-23 14:22:00,72.6,69.9,0.00,WNW,295,0.0,6.3,91,0.00,,,-99.99,VWS V12.07,2013-08-23 18:22:00,
2013-08-23 14:32:00,71.3,69.9,0.00,NW,307,0.0,6.3,95,0.00,,,-99.99,VWS V12.07,2013-08-23 18:32:00,
2013-08-23 14:46:00,69.2,68.8,0.00,NNW,336,0.0,2.3,99,0.00,,,-99.99,VWS V12.07,2013-08-23 18:46:00,
2013-08-23 14:52:00,69.2,69.2,0.00,NNW,336,0.0,2.3,100,0.00,,,-99.99,VWS V12.07,2013-08-23 18:52:00,
2013-08-23 15:02:00,69.4,69.4,0.00,NNW,336,0.0,0.0,100,0.00,,,-99.99,VWS V12.07,2013-08-23 19:02:00,
2013-08-23 15:12:00,69.7,69.7,0.00,NNW,336,0.0,0.0,100,0.00,,,-99.99,VWS V12.07,2013-08-23 19:12:00,
2013-08-23 15:22:00,69.9,69.9,0.00,NNW,336,0.0,0.0,100,0.00,,,-99.99,VWS V12.07,2013-08-23 19:22:00,
2013-08-23 15:32:00,69.9,69.9,0.00,NNW,336,0.0,0.0,100,0.00,,,-99.99,VWS V12.07,2013-08-23 19:32:00,
2013-08-23 15:42:00,70.0,70.0,0.00,NNW,336,0.0,0.0,100,0.00,,,-99.99,VWS V12.07,2013-08-23 19:42:00,
2013-08-23 15:52:00,70.0,70.0,0.00,NNW,336,0.0,3.0,100,0.00,,,-99.99,VWS V12.07,2013-08-23 19:52:00,
2013-08-23 16:02:00,70.4,70.4,0.00,NNW,336,0.0,0.0,100,0.00,,,-99.99,VWS V12.07,2013-08-23 20:02:00,
2013-08-23 16:12:00,70.9,70.9,0.00,ESE,117,7.3,9.9,100,0.00,,,-99.99,VWS V12.07,2013-08-23 20:12:00,
2013-08-23 16:22:00,71.1,71.0,0.00,ENE,66,0.0,7.5,100,0.00,,,-99.99,VWS V12.07,2013-08-23 20:22:00,
2013-08-23 16:32:00,70.8,70.7,0.00,ENE,65,3.1,11.1,100,0.00,,,-99.99,VWS V12.07,2013-08-23 20:32:00,
2013-08-23 16:42:00,70.2,70.2,0.00,SE,125,0.0,4.9,100,0.00,,,-99.99,VWS V12.07,2013-08-23 20:42:00,
2013-08-23 16:52:00,69.6,69.6,0.00,ESE,110,4.5,7.1,100,0.00,,,-99.99,VWS V12.07,2013-08-23 20:52:00,
2013-08-23 17:02:00,69.5,69.5,0.00,East,80,0.0,6.2,100,0.00,,,-99.99,VWS V12.07,2013-08-23 21:02:00,
2013-08-23 17:12:00,69.2,69.2,0.00,NE,41,0.0,6.2,100,0.00,,,-99.99,VWS V12.07,2013-08-23 21:12:00,
2013-08-23 17:22:00,69.4,69.4,0.00,West,270,0.0,0.0,100,0.00,,,-99.99,VWS V12.07,2013-08-23 21:22:00,
2013-08-23 17:32:00,69.5,69.5,0.00,West,270,0.0,0.0,100,0.00,,,-99.99,VWS V12.07,2013-08-23 21:32:00,
2013-08-23 17:42:00,69.0,69.0,0.00,West,263,0.0,0.0,100,0.00,,,-99.99,VWS V12.07,2013-08-23 21:42:00,
2013-08-23 17:52:00,68.5,68.5,0.00,West,263,0.0,0.0,100,0.00,,,-99.99,VWS V12.07,2013-08-23 21:52:00,
2013-08-23 18:02:00,68.1,68.1,0.00,West,263,0.0,0.0,100,0.00,,,-99.99,VWS V12.07,2013-08-23 22:02:00,
2013-08-23 18:12:00,67.9,67.9,0.00,West,263,0.0,0.0,100,0.00,,,-99.99,VWS V12.07,2013-08-23 22:12:00,
2013-08-23 18:22:00,67.9,67.9,0.00,West,263,0.0,0.0,100,0.00,,,-99.99,VWS V12.07,2013-08-23 22:22:00,
2013-08-23 18:32:00,67.7,67.7,0.00,West,263,0.0,0.0,100,0.00,,,-99.99,VWS V12.07,2013-08-23 22:32:00,
2013-08-23 18:42:00,67.5,67.5,0.00,West,263,0.0,0.0,100,0.00,,,-99.99,VWS V12.07,2013-08-23 22:42:00,
2013-08-23 18:52:00,67.4,67.4,0.00,West,263,0.0,0.0,100,0.00,,,-99.99,VWS V12.07,2013-08-23 22:52:00,
2013-08-23 19:02:00,67.3,67.3,0.00,WSW,245,3.4,5.8,100,0.00,,,-99.99,VWS V12.07,2013-08-23 23:02:00,
2013-08-23 19:12:00,67.2,67.2,0.00,WSW,245,0.0,5.8,100,0.00,,,-99.99,VWS V12.07,2013-08-23 23:12:00,
2013-08-23 19:22:00,67.2,67.2,0.00,WSW,245,0.0,0.0,100,0.00,,,-99.99,VWS V12.07,2013-08-23 23:22:00,
2013-08-23 19:32:00,67.0,67.0,0.00,WSW,245,0.0,0.0,100,0.00,,,-99.99,VWS V12.07,2013-08-23 23:32:00,
2013-08-23 19:42:00,66.8,66.8,0.00,WSW,245,0.0,0.0,100,0.00,,,-99.99,VWS V12.07,2013-08-23 23:42:00,
2013-08-23 19:52:00,66.5,66.5,0.00,WSW,245,0.0,0.0,100,0.00,,,-99.99,VWS V12.07,2013-08-23 23:52:00,
2013-08-23 20:02:00,66.4,66.4,0.00,WSW,245,0.0,0.0,100,0.00,,,-99.99,VWS V12.07,2013-08-24 00:02:00,
2013-08-23 20:12:00,66.3,66.3,0.00,WSW,245,0.0,0.0,100,0.00,,,-99.99,VWS V12.07,2013-08-24 00:12:00,
2013-08-23 20:22:00,66.3,66.3,0.00,NNW,338,0.0,0.0,100,0.00,,,-99.99,VWS V12.07,2013-08-24 00:22:00,
2013-08-23 20:32:00,66.3,66.2,0.00,NNW,338,0.0,0.0,100,0.00,,,-99.99,VWS V12.07,2013-08-24 00:32:00,
2013-08-23 20:42:00,66.3,66.3,0.00,East,90,0.0,0.0,100,0.00,,,-99.99,VWS V12.07,2013-08-24 00:42:00,
2013-08-23 20:52:00,66.2,66.2,0.00,East,91,0.0,4.8,100,0.00,,,-99.99,VWS V12.07,2013-08-24 00:52:00,
2013-08-23 21:02:00,66.2,66.2,0.00,East,91,0.0,0.0,100,0.00,,,-99.99,VWS V12.07,2013-08-24 01:02:00,
2013-08-23 21:12:00,66.2,66.2,0.00,East,93,0.0,5.9,100,0.00,,,-99.99,VWS V12.07,2013-08-24 01:12:00,
2013-08-23 21:22:00,66.0,66.0,0.00,SE,124,5.8,6.6,100,0.00,,,-99.99,VWS V12.07,2013-08-24 01:22:00,
2013-08-23 21:32:00,65.7,65.7,0.00,ESE,110,7.2,8.1,100,0.00,,,-99.99,VWS V12.07,2013-08-24 01:32:00,
2013-08-23 21:42:00,65.5,65.5,0.00,SE,127,5.5,7.6,100,0.00,,,-99.99,VWS V12.07,2013-08-24 01:42:00,
2013-08-23 21:52:00,65.3,65.3,0.00,SE,125,8.0,10.0,100,0.00,,,-99.99,VWS V12.07,2013-08-24 01:52:00,
2013-08-23 22:02:00,64.8,64.8,0.00,ESE,103,6.2,7.5,100,0.00,,,-99.99,VWS V12.07,2013-08-24 02:02:00,
2013-08-23 22:12:00,64.5,64.5,0.00,SE,129,6.1,7.9,100,0.00,,,-99.99,VWS V12.07,2013-08-24 02:12:00,
2013-08-23 22:22:00,64.7,64.7,0.00,ESE,108,0.0,3.3,100,0.00,,,-99.99,VWS V12.07,2013-08-24 02:22:00,
2013-08-23 22:32:00,64.9,64.9,0.00,ESE,120,6.4,7.5,100,0.00,,,-99.99,VWS V12.07,2013-08-24 02:32:00,
2013-08-23 22:42:00,64.7,64.7,0.00,SE,127,6.5,8.8,100,0.00,,,-99.99,VWS V12.07,2013-08-24 02:42:00,
2013-08-23 22:52:00,64.7,64.7,0.00,SE,136,7.7,8.8,100,0.00,,,-99.99,VWS V12.07,2013-08-24 02:52:00,
2013-08-23 23:02:00,64.4,64.4,0.00,East,87,3.5,5.2,100,0.00,,,-99.99,VWS V12.07,2013-08-24 03:02:00,
2013-08-23 23:12:00,64.3,64.3,0.00,ESE,103,6.1,7.0,100,0.00,,,-99.99,VWS V12.07,2013-08-24 03:12:00,
2013-08-23 23:22:00,64.4,64.4,0.00,SE,136,4.8,5.6,100,0.00,,,-99.99,VWS V12.07,2013-08-24 03:22:00,
2013-08-23 23:32:00,64.4,64.4,0.00,ESE,103,6.0,6.3,100,0.00,,,-99.99,VWS V12.07,2013-08-24 03:32:00,
2013-08-23 23:42:00,64.3,64.3,0.00,SE,125,5.9,7.8,100,0.00,,,-99.99,VWS V12.07,2013-08-24 03:42:00,
2013-08-23 23:52:00,64.3,64.3,0.00,ENE,77,0.0,9.0,100,0.00,,,-99.99,VWS V12.07,2013-08-24 03:52:00,